Time;durP1;ratioP1;P1;durP2;ratioP2;P2;SDS_P1;SDS_P2;PMS_P1;PMS_P2;Temp;Humidity;BMP_temperature;BMP_pressure;BME280_temperature;BME280_humidity;BME280_pressure;Samples;Min_cycle;Max_cycle;Signal;HPM_P1;HPM_P2
2024/03/23 00:00:13;;;;;;;31.67;29.98;;;;;;;1.30;100.00;101292.38;5084311;28;20517;-73
2024/03/23 00:02:45;;;;;;;32.47;30.40;;;;;;;1.32;100.00;101293.09;5089114;28;20048;-72
2024/03/23 00:05:15;;;;;;;32.05;30.30;;;;;;;1.28;100.00;101284.69;5084357;28;20141;-73
2024/03/23 00:07:46;;;;;;;32.35;30.45;;;;;;;1.31;100.00;101294.88;5075643;28;20039;-72
2024/03/23 00:10:16;;;;;;;32.58;30.58;;;;;;;1.31;100.00;101291.44;5082087;28;20059;-72
2024/03/23 00:12:47;;;;;;;29.70;28.10;;;;;;;1.51;100.00;101280.09;5084816;28;20070;-73
2024/03/23 00:15:17;;;;;;;33.75;31.95;;;;;;;1.59;100.00;101288.09;5083427;28;20078;-71
2024/03/23 00:17:48;;;;;;;33.25;31.45;;;;;;;1.60;100.00;101281.06;5084157;28;20052;-70
2024/03/23 00:20:17;;;;;;;32.15;30.23;;;;;;;1.63;100.00;101283.41;5087701;28;20048;-70
2024/03/23 00:22:49;;;;;;;33.38;31.60;;;;;;;1.10;100.00;101288.88;5081260;28;20059;-71
2024/03/23 00:25:18;;;;;;;32.67;30.88;;;;;;;1.42;100.00;101288.72;5071765;28;20500;-72
2024/03/23 00:27:50;;;;;;;32.13;29.95;;;;;;;1.14;100.00;101282.41;5070117;28;20441;-71
2024/03/23 00:30:19;;;;;;;30.98;29.23;;;;;;;1.06;100.00;101287.44;5067627;28;20058;-72
2024/03/23 00:32:50;;;;;;;32.45;30.75;;;;;;;1.09;100.00;101280.19;5086513;28;20052;-71
2024/03/23 00:35:20;;;;;;;33.67;31.50;;;;;;;0.61;100.00;101283.34;5068236;28;20056;-70
2024/03/23 00:37:51;;;;;;;31.55;29.85;;;;;;;0.78;100.00;101274.09;5084705;28;20054;-71
2024/03/23 00:40:21;;;;;;;31.67;30.05;;;;;;;0.55;100.00;101275.19;5070716;28;20056;-71
2024/03/23 00:42:52;;;;;;;28.70;27.00;;;;;;;0.36;100.00;101271.44;5082934;28;20056;-71
2024/03/23 00:45:22;;;;;;;31.15;29.45;;;;;;;0.62;100.00;101278.94;5070292;28;20121;-71
2024/03/23 00:47:53;;;;;;;30.60;29.00;;;;;;;0.66;100.00;101275.94;5087519;28;20074;-71
2024/03/23 00:50:23;;;;;;;32.75;30.80;;;;;;;0.44;100.00;101274.28;5087060;28;20047;-72
2024/03/23 00:52:54;;;;;;;31.67;29.88;;;;;;;0.42;100.00;101272.75;5080597;28;20083;-73
2024/03/23 00:55:21;;;;;;;32.58;30.88;;;;;;;0.63;100.00;101272.75;5078913;28;20048;-72
2024/03/23 00:57:48;;;;;;;30.80;29.20;;;;;;;0.67;100.00;101269.75;5088209;28;20055;-71
2024/03/23 01:00:15;;;;;;;29.10;27.50;;;;;;;0.59;100.00;101272.19;5081366;28;20052;-72
2024/03/23 01:02:42;;;;;;;31.50;29.70;;;;;;;0.38;100.00;101271.34;5084172;28;20585;-71
2024/03/23 01:05:09;;;;;;;30.13;28.38;;;;;;;0.47;100.00;101270.59;5088744;28;20052;-72
2024/03/23 01:07:36;;;;;;;30.60;29.00;;;;;;;0.65;100.00;101266.44;5088100;28;20044;-72
2024/03/23 01:10:02;;;;;;;30.27;28.58;;;;;;;0.69;100.00;101265.22;5080845;28;20056;-72
2024/03/23 01:12:31;;;;;;;31.13;29.40;;;;;;;0.81;100.00;101259.94;5088348;28;20083;-72
2024/03/23 01:14:57;;;;;;;31.80;30.00;;;;;;;0.80;100.00;101263.50;5088454;28;20083;-72
2024/03/23 01:17:24;;;;;;;31.45;29.75;;;;;;;0.68;100.00;101271.41;5083210;28;20044;-72
2024/03/23 01:19:50;;;;;;;29.30;27.80;;;;;;;1.07;100.00;101268.19;5080720;28;20048;-71
2024/03/23 01:22:17;;;;;;;33.65;31.85;;;;;;;1.00;100.00;101257.44;5083719;28;20051;-72
2024/03/23 01:24:43;;;;;;;29.00;27.50;;;;;;;1.02;100.00;101259.91;5089844;28;20047;-72
2024/03/23 01:27:11;;;;;;;27.85;26.35;;;;;;;1.01;100.00;101258.25;5091689;28;20052;-72
2024/03/23 01:29:38;;;;;;;31.63;29.83;;;;;;;0.42;100.00;101265.75;5091716;28;20054;-70
2024/03/23 01:32:06;;;;;;;30.25;27.92;;;;;;;0.60;100.00;101263.38;5091030;28;20094;-71
2024/03/23 01:34:32;;;;;;;33.35;31.40;;;;;;;0.58;100.00;101260.06;5086245;28;20082;-72
2024/03/23 01:37:00;;;;;;;32.22;30.42;;;;;;;0.49;100.00;101257.41;5091199;28;20044;-71
2024/03/23 01:39:26;;;;;;;31.35;29.40;;;;;;;0.41;100.00;101256.22;5088180;28;20056;-70
2024/03/23 01:41:53;;;;;;;31.90;29.75;;;;;;;0.11;100.00;101250.91;5091254;28;20129;-70
2024/03/23 01:44:20;;;;;;;31.55;29.77;;;;;;;0.21;100.00;101254.41;5091336;28;20059;-70
2024/03/23 01:46:53;;;;;;;32.17;29.83;;;;;;;0.11;100.00;101254.34;5091263;28;20052;-71
2024/03/23 01:49:19;;;;;;;32.78;30.67;;;;;;;0.12;100.00;101256.03;5082924;28;20052;-70
2024/03/23 01:51:46;;;;;;;32.97;31.02;;;;;;;0.03;100.00;101259.38;5091811;28;20206;-72
2024/03/23 01:54:12;;;;;;;30.33;28.70;;;;;;;-0.17;100.00;101257.53;5089621;28;20044;-72
2024/03/23 01:56:40;;;;;;;31.42;29.73;;;;;;;-0.17;100.00;101254.94;5087780;28;20504;-71
2024/03/23 01:59:06;;;;;;;33.47;31.58;;;;;;;-0.09;100.00;101255.97;5090315;28;20569;-70
2024/03/23 02:01:36;;;;;;;31.20;29.23;;;;;;;-0.02;100.00;101257.13;5091166;28;20109;-71
2024/03/23 02:04:05;;;;;;;30.35;28.65;;;;;;;-0.09;100.00;101247.28;5089998;28;20058;-71
2024/03/23 02:06:32;;;;;;;30.08;28.23;;;;;;;0.05;100.00;101254.84;5087698;28;20048;-71
2024/03/23 02:09:00;;;;;;;30.63;28.92;;;;;;;0.29;100.00;101256.41;5086984;28;20040;-72
2024/03/23 02:11:28;;;;;;;32.58;30.13;;;;;;;0.49;100.00;101247.78;5092077;28;20052;-72
2024/03/23 02:13:55;;;;;;;29.58;27.83;;;;;;;-0.07;100.00;101243.59;5091271;28;20109;-72
2024/03/23 02:16:21;;;;;;;30.30;28.55;;;;;;;0.06;100.00;101253.06;5091459;28;20044;-72
2024/03/23 02:18:48;;;;;;;31.05;29.05;;;;;;;-0.03;100.00;101246.78;5091511;28;20421;-72
2024/03/23 02:21:15;;;;;;;30.77;29.08;;;;;;;0.01;100.00;101247.41;5091113;28;20057;-73
2024/03/23 02:23:45;;;;;;;28.85;27.25;;;;;;;-0.03;100.00;101244.19;5091584;28;20044;-73
2024/03/23 02:26:11;;;;;;;32.63;30.73;;;;;;;-0.17;100.00;101247.09;5091232;28;20056;-73
2024/03/23 02:28:42;;;;;;;34.17;32.28;;;;;;;0.04;100.00;101249.75;5086680;28;20511;-73
2024/03/23 02:31:08;;;;;;;33.20;31.35;;;;;;;-0.01;100.00;101248.34;5083139;28;20717;-72
2024/03/23 02:33:37;;;;;;;33.70;31.85;;;;;;;-0.29;100.00;101241.06;5083453;28;20052;-72
2024/03/23 02:36:04;;;;;;;32.55;30.75;;;;;;;-0.41;100.00;101247.28;5082038;28;20052;-72
2024/03/23 02:38:31;;;;;;;33.47;31.10;;;;;;;-0.32;100.00;101247.34;5088190;28;20060;-72
2024/03/23 02:41:03;;;;;;;32.60;30.90;;;;;;;-0.45;100.00;101246.69;5083839;28;20052;-72
2024/03/23 02:43:30;;;;;;;31.15;29.45;;;;;;;-0.43;100.00;101246.56;5090708;28;20048;-72
2024/03/23 02:45:56;;;;;;;31.20;29.58;;;;;;;-0.61;100.00;101241.81;5088143;28;20044;-72
2024/03/23 02:48:24;;;;;;;29.50;27.90;;;;;;;-0.63;100.00;101246.34;5090875;28;20059;-71
2024/03/23 02:50:54;;;;;;;31.30;29.70;;;;;;;-0.51;100.00;101248.00;5089693;28;20052;-72
2024/03/23 02:53:21;;;;;;;35.58;33.88;;;;;;;-0.46;100.00;101250.22;5079236;28;20504;-71
2024/03/23 02:55:47;;;;;;;33.55;31.88;;;;;;;-0.59;100.00;101246.94;5089542;28;20132;-72
2024/03/23 02:58:15;;;;;;;33.42;31.73;;;;;;;-0.46;100.00;101255.44;5088626;28;20056;-73
2024/03/23 03:00:41;;;;;;;36.13;34.05;;;;;;;-0.60;100.00;101250.50;5085460;28;20052;-72
2024/03/23 03:03:09;;;;;;;35.40;33.60;;;;;;;-0.33;100.00;101248.31;5090333;28;20173;-73
2024/03/23 03:05:35;;;;;;;34.90;33.10;;;;;;;-0.12;100.00;101256.22;5089700;28;20837;-73
2024/03/23 03:08:02;;;;;;;34.20;32.50;;;;;;;-0.19;100.00;101251.59;5080792;28;20044;-73
2024/03/23 03:10:29;;;;;;;36.17;34.28;;;;;;;-0.43;100.00;101249.97;5075571;28;20052;-74
2024/03/23 03:12:56;;;;;;;36.65;34.88;;;;;;;-0.44;100.00;101252.72;5087120;28;20048;-72
2024/03/23 03:15:23;;;;;;;32.42;30.92;;;;;;;-0.56;100.00;101254.53;5073926;28;20058;-72
2024/03/23 03:17:50;;;;;;;31.60;29.90;;;;;;;-0.79;100.00;101251.09;5087315;28;20048;-72
2024/03/23 03:20:17;;;;;;;35.58;33.78;;;;;;;-0.81;100.00;101247.78;5089812;28;20064;-72
2024/03/23 03:22:44;;;;;;;37.28;34.83;;;;;;;-0.72;100.00;101245.28;5089486;28;20048;-72
2024/03/23 03:25:10;;;;;;;30.13;28.65;;;;;;;-0.87;100.00;101256.09;5086487;28;20057;-72
2024/03/23 03:27:38;;;;;;;32.55;30.95;;;;;;;-1.01;100.00;101254.53;5086798;28;20062;-72
2024/03/23 03:30:05;;;;;;;32.30;30.70;;;;;;;-1.06;100.00;101248.81;5073751;28;20122;-73
2024/03/23 03:32:35;;;;;;;37.20;35.13;;;;;;;-1.11;100.00;101250.97;5090027;28;20508;-71
2024/03/23 03:35:01;;;;;;;36.67;34.97;;;;;;;-1.08;100.00;101251.56;5085138;28;20482;-71
2024/03/23 03:37:28;;;;;;;35.78;34.08;;;;;;;-1.13;100.00;101248.47;5089159;28;20047;-71
2024/03/23 03:39:54;;;;;;;37.80;35.60;;;;;;;-0.97;100.00;101251.59;5073736;28;20057;-70
2024/03/23 03:42:21;;;;;;;31.95;30.33;;;;;;;-1.23;100.00;101250.13;5083440;28;20097;-71
2024/03/23 03:44:47;;;;;;;33.35;31.63;;;;;;;-1.21;100.00;101245.59;5088849;28;20901;-73
2024/03/23 03:47:14;;;;;;;36.47;34.47;;;;;;;-1.34;100.00;101250.94;5084712;28;20051;-73
2024/03/23 03:49:43;;;;;;;35.03;33.33;;;;;;;-1.22;100.00;101243.97;5089008;28;20516;-72
2024/03/23 03:52:11;;;;;;;31.35;29.95;;;;;;;-1.44;100.00;101245.59;5073177;28;20047;-72
2024/03/23 03:54:36;;;;;;;35.35;33.75;;;;;;;-1.03;100.00;101245.97;5082408;28;20525;-73
2024/03/23 03:57:04;;;;;;;36.97;35.08;;;;;;;-1.00;100.00;101243.16;5076402;28;20045;-72
2024/03/23 03:59:30;;;;;;;37.20;35.40;;;;;;;-1.09;100.00;101238.63;5089393;28;20048;-73
2024/03/23 04:01:57;;;;;;;27.23;25.83;;;;;;;-1.09;100.00;101241.25;5089245;28;20044;-73
2024/03/23 04:04:28;;;;;;;28.27;26.98;;;;;;;-0.95;100.00;101246.22;5088903;28;20056;-73
2024/03/23 04:07:01;;;;;;;25.60;24.40;;;;;;;-1.05;100.00;101243.50;5079685;28;20045;-73
2024/03/23 04:09:27;;;;;;;;;;;;;;;-1.07;100.00;101237.56;5084132;28;20497;-73
2024/03/23 04:11:55;;;;;;;26.15;24.75;;;;;;;-0.73;100.00;101233.22;5089690;28;19954;-71
2024/03/23 04:14:21;;;;;;;28.17;26.38;;;;;;;-0.67;100.00;101239.69;5080213;28;20052;-72
2024/03/23 04:16:48;;;;;;;27.98;26.48;;;;;;;-0.59;100.00;101237.31;5079872;28;20340;-72
2024/03/23 04:19:14;;;;;;;30.25;28.40;;;;;;;-0.48;100.00;101234.69;5083200;28;20493;-73
2024/03/23 04:21:42;;;;;;;27.05;25.55;;;;;;;-0.80;100.00;101237.22;5072634;28;20076;-73
2024/03/23 04:24:10;;;;;;;28.38;26.88;;;;;;;-0.53;100.00;101234.22;5084821;28;20048;-72
2024/03/23 04:26:42;;;;;;;29.42;27.73;;;;;;;-0.63;100.00;101233.31;5074354;28;20067;-71
2024/03/23 04:29:08;;;;;;;27.52;26.02;;;;;;;-0.53;100.00;101236.84;5075283;28;20476;-73
2024/03/23 04:31:35;;;;;;;27.50;26.00;;;;;;;-0.41;100.00;101240.25;5082136;28;20074;-71
2024/03/23 04:34:02;;;;;;;26.48;24.98;;;;;;;-0.29;100.00;101236.66;5088851;28;20060;-71
2024/03/23 04:36:29;;;;;;;27.15;25.55;;;;;;;-0.24;100.00;101237.16;5076901;28;20040;-71
2024/03/23 04:38:57;;;;;;;23.60;22.30;;;;;;;-0.38;100.00;101233.97;5087759;28;20048;-70
2024/03/23 04:41:26;;;;;;;24.20;22.70;;;;;;;-0.16;100.00;101235.69;5089389;28;20060;-71
2024/03/23 04:43:53;;;;;;;26.58;24.60;;;;;;;-0.15;100.00;101232.97;5085090;28;20082;-71
2024/03/23 04:46:20;;;;;;;27.95;26.23;;;;;;;-0.03;100.00;101236.34;5088008;28;20416;-70
2024/03/23 04:48:47;;;;;;;26.25;24.75;;;;;;;0.01;100.00;101235.16;5075388;28;20241;-71
2024/03/23 04:51:22;;;;;;;26.77;25.10;;;;;;;0.22;100.00;101241.25;5087549;28;20097;-71
2024/03/23 04:53:49;;;;;;;26.63;24.73;;;;;;;0.17;100.00;101240.78;5087978;28;20082;-73
2024/03/23 04:56:18;;;;;;;25.00;23.60;;;;;;;0.44;100.00;101242.91;5080290;28;20053;-73
2024/03/23 04:58:46;;;;;;;28.27;26.33;;;;;;;0.44;100.00;101242.09;5092427;28;20056;-72
2024/03/23 05:01:13;;;;;;;26.60;25.10;;;;;;;0.39;100.00;101239.88;5092354;28;20106;-73
2024/03/23 05:03:39;;;;;;;28.45;26.75;;;;;;;0.53;100.00;101243.94;5083250;28;20048;-73
2024/03/23 05:06:08;;;;;;;26.98;25.38;;;;;;;0.73;100.00;101237.06;5092398;28;20048;-73
2024/03/23 05:08:37;;;;;;;28.17;26.50;;;;;;;0.72;100.00;101235.38;5092865;28;20101;-72
2024/03/23 05:11:05;;;;;;;26.30;24.70;;;;;;;0.90;100.00;101238.22;5089807;28;20060;-73
2024/03/23 05:13:31;;;;;;;27.30;25.67;;;;;;;0.89;100.00;101233.97;5092694;28;20048;-72
2024/03/23 05:16:00;;;;;;;27.92;26.33;;;;;;;0.96;100.00;101226.41;5092977;28;20060;-73
2024/03/23 05:18:26;;;;;;;28.13;26.23;;;;;;;1.16;100.00;101222.09;5083207;28;20105;-72
2024/03/23 05:21:00;;;;;;;28.40;26.65;;;;;;;1.22;100.00;101230.25;5081615;28;20052;-72
2024/03/23 05:23:26;;;;;;;30.23;28.52;;;;;;;1.43;100.00;101231.97;5085896;28;20493;-72
2024/03/23 05:25:53;;;;;;;28.00;26.30;;;;;;;1.52;100.00;101229.38;5078521;28;20051;-72
2024/03/23 05:28:22;;;;;;;30.90;29.10;;;;;;;1.62;100.00;101236.41;5091553;28;20130;-72
2024/03/23 05:30:52;;;;;;;30.73;28.83;;;;;;;1.66;100.00;101230.75;5091990;28;20048;-72
2024/03/23 05:33:20;;;;;;;31.05;28.98;;;;;;;2.03;100.00;101232.75;5090376;28;20102;-73
2024/03/23 05:35:47;;;;;;;31.77;29.77;;;;;;;2.22;100.00;101229.28;5082413;28;20062;-72
2024/03/23 05:38:14;;;;;;;33.10;31.20;;;;;;;2.29;100.00;101225.97;5091789;28;20527;-72
2024/03/23 05:40:41;;;;;;;35.70;33.60;;;;;;;2.27;100.00;101233.16;5091055;28;20055;-72
2024/03/23 05:43:07;;;;;;;33.30;31.20;;;;;;;2.31;100.00;101225.00;5091001;28;20048;-73
2024/03/23 05:45:34;;;;;;;33.28;31.17;;;;;;;2.38;100.00;101220.84;5088736;28;20059;-72
2024/03/23 05:48:00;;;;;;;32.63;30.85;;;;;;;2.52;100.00;101226.50;5092244;28;20043;-72
2024/03/23 05:50:28;;;;;;;34.03;32.03;;;;;;;2.89;100.00;101219.63;5083497;28;20060;-72
2024/03/23 05:52:55;;;;;;;33.90;31.90;;;;;;;3.13;100.00;101227.00;5079565;28;20592;-71
2024/03/23 05:55:22;;;;;;;35.22;33.15;;;;;;;3.17;100.00;101217.84;5091392;28;20056;-70
2024/03/23 05:57:48;;;;;;;34.38;32.38;;;;;;;3.25;100.00;101207.47;5091324;28;20056;-71
2024/03/23 06:00:16;;;;;;;34.38;32.47;;;;;;;3.71;100.00;101216.16;5090632;28;20056;-69
2024/03/23 06:02:44;;;;;;;37.67;35.47;;;;;;;3.48;100.00;101218.41;5090531;28;20062;-71
2024/03/23 06:05:11;;;;;;;35.00;32.80;;;;;;;3.83;100.00;101217.59;5088147;28;20851;-71
2024/03/23 06:07:39;;;;;;;35.05;32.95;;;;;;;3.97;100.00;101220.72;5090790;28;20735;-71
2024/03/23 06:10:07;;;;;;;33.00;31.10;;;;;;;3.99;100.00;101213.47;5082002;28;20048;-71
2024/03/23 06:12:33;;;;;;;33.58;31.67;;;;;;;4.20;100.00;101215.78;5077878;28;20503;-71
2024/03/23 06:15:00;;;;;;;33.45;31.60;;;;;;;4.48;100.00;101219.97;5090185;28;20093;-70
2024/03/23 06:17:26;;;;;;;36.72;34.63;;;;;;;4.85;100.00;101211.00;5089931;28;20048;-71
2024/03/23 06:19:53;;;;;;;35.67;33.53;;;;;;;4.87;100.00;101208.19;5089670;28;20133;-70
2024/03/23 06:22:20;;;;;;;34.70;32.90;;;;;;;5.00;100.00;101214.69;5084295;28;20054;-70
2024/03/23 06:24:49;;;;;;;34.63;32.83;;;;;;;5.41;100.00;101214.00;5086771;28;20059;-71
2024/03/23 06:27:15;;;;;;;34.40;32.47;;;;;;;5.49;100.00;101216.69;5070979;28;20583;-72
2024/03/23 06:29:42;;;;;;;33.45;31.65;;;;;;;5.77;100.00;101209.31;5087978;28;20060;-71
2024/03/23 06:32:09;;;;;;;32.92;31.10;;;;;;;5.73;100.00;101208.84;5086399;28;20052;-70
2024/03/23 06:34:35;;;;;;;33.17;31.23;;;;;;;5.92;100.00;101207.69;5089062;28;20112;-69
2024/03/23 06:37:03;;;;;;;33.40;31.25;;;;;;;6.29;100.00;101210.88;5071982;28;20056;-69
2024/03/23 06:39:29;;;;;;;33.25;31.20;;;;;;;6.53;100.00;101210.84;5082929;28;20059;-71
2024/03/23 06:42:00;;;;;;;32.90;31.00;;;;;;;6.88;100.00;101201.69;5088848;28;20430;-69
2024/03/23 06:44:27;;;;;;;31.85;30.05;;;;;;;7.07;100.00;101197.03;5086534;28;20052;-69
2024/03/23 06:46:54;;;;;;;33.40;31.50;;;;;;;7.14;100.00;101192.72;5088078;28;20143;-70
2024/03/23 06:49:20;;;;;;;31.52;29.83;;;;;;;7.33;100.00;101197.56;5087855;28;20128;-70
2024/03/23 06:51:47;;;;;;;38.70;36.25;;;;;;;7.37;100.00;101195.41;5082201;28;20052;-71
2024/03/23 06:54:14;;;;;;;34.58;31.73;;;;;;;7.57;100.00;101185.22;5086142;28;20094;-71
2024/03/23 06:56:41;;;;;;;31.73;29.83;;;;;;;8.08;100.00;101193.47;5088324;28;20103;-70
2024/03/23 06:59:09;;;;;;;32.83;30.73;;;;;;;8.11;100.00;101185.16;5088427;28;20085;-73
2024/03/23 07:01:36;;;;;;;33.20;30.80;;;;;;;8.14;100.00;101191.91;5089432;28;20392;-73
2024/03/23 07:04:03;;;;;;;33.97;31.67;;;;;;;9.03;100.00;101186.75;5084642;28;20052;-73
2024/03/23 07:06:31;;;;;;;32.40;30.40;;;;;;;8.67;100.00;101174.22;5073545;28;20619;-73
2024/03/23 07:08:57;;;;;;;31.45;29.45;;;;;;;8.78;100.00;101175.63;5070864;28;20057;-73
2024/03/23 07:11:24;;;;;;;32.13;30.02;;;;;;;9.02;100.00;101175.34;5085860;28;20504;-73
2024/03/23 07:13:51;;;;;;;30.27;28.27;;;;;;;9.37;100.00;101168.41;5087389;28;20052;-73
2024/03/23 07:16:19;;;;;;;30.95;28.95;;;;;;;9.74;100.00;101169.22;5084513;28;20058;-73
2024/03/23 07:18:46;;;;;;;32.53;30.33;;;;;;;9.90;100.00;101169.97;5089112;28;20047;-73
2024/03/23 07:21:13;;;;;;;33.78;31.58;;;;;;;9.96;100.00;101164.72;5084545;28;20166;-73
2024/03/23 07:23:44;;;;;;;31.42;29.42;;;;;;;10.66;100.00;101160.34;5088774;28;20462;-73
2024/03/23 07:26:12;;;;;;;31.50;29.40;;;;;;;10.22;100.00;101156.13;5089306;28;20052;-73
2024/03/23 07:28:42;;;;;;;31.15;29.05;;;;;;;10.98;100.00;101156.25;5084350;28;20052;-72
2024/03/23 07:31:11;;;;;;;31.52;29.42;;;;;;;11.57;100.00;101154.78;5085557;28;20582;-72
2024/03/23 07:33:43;;;;;;;31.30;29.27;;;;;;;11.53;100.00;101145.56;5072287;28;20129;-70
2024/03/23 07:36:11;;;;;;;32.50;30.20;;;;;;;11.72;100.00;101146.63;5076205;28;20052;-72
2024/03/23 07:38:40;;;;;;;32.17;30.10;;;;;;;12.10;100.00;101144.22;5089376;28;20055;-70
2024/03/23 07:41:10;;;;;;;32.42;30.33;;;;;;;12.08;100.00;101146.25;5085085;28;20149;-73
2024/03/23 07:43:37;;;;;;;33.55;31.35;;;;;;;12.44;100.00;101131.69;5081593;28;20094;-72
2024/03/23 07:46:05;;;;;;;35.63;33.33;;;;;;;12.61;100.00;101135.53;5075633;28;20168;-71
2024/03/23 07:48:31;;;;;;;33.63;31.35;;;;;;;12.78;100.00;101135.88;5089271;28;20774;-71
2024/03/23 07:51:05;;;;;;;35.15;32.80;;;;;;;13.13;100.00;101134.72;5081202;28;20066;-71
2024/03/23 07:53:32;;;;;;;34.42;32.15;;;;;;;13.37;100.00;101126.00;5086664;28;20058;-71
2024/03/23 07:56:00;;;;;;;32.65;30.45;;;;;;;13.44;100.00;101120.66;5083954;28;20055;-70
2024/03/23 07:58:27;;;;;;;33.00;30.80;;;;;;;12.56;100.00;101123.88;5083834;28;20048;-73
2024/03/23 08:00:54;;;;;;;34.78;32.50;;;;;;;13.13;100.00;101129.38;5084773;28;20058;-71
2024/03/23 08:03:20;;;;;;;36.20;33.78;;;;;;;14.17;100.00;101128.91;5086916;28;20044;-70
2024/03/23 08:05:48;;;;;;;39.38;36.78;;;;;;;14.01;100.00;101120.63;5085475;28;20087;-71
2024/03/23 08:08:15;;;;;;;36.33;33.83;;;;;;;14.57;100.00;101122.38;5087435;28;20109;-71
2024/03/23 08:10:49;;;;;;;38.22;35.50;;;;;;;13.61;100.00;101119.06;5087959;28;20048;-71
2024/03/23 08:13:15;;;;;;;38.58;35.88;;;;;;;12.85;100.00;101119.88;5086114;28;20746;-72
2024/03/23 08:15:42;;;;;;;39.88;37.17;;;;;;;13.58;100.00;101127.50;5083053;28;20060;-72
2024/03/23 08:18:12;;;;;;;39.75;36.95;;;;;;;14.65;100.00;101122.91;5084951;28;20056;-72
2024/03/23 08:20:39;;;;;;;36.88;34.38;;;;;;;13.83;99.57;101111.53;5088402;28;20040;-72
2024/03/23 08:23:06;;;;;;;37.65;34.95;;;;;;;14.23;100.00;101115.72;5086963;28;20052;-72
2024/03/23 08:25:35;;;;;;;38.10;35.50;;;;;;;13.71;100.00;101105.28;5087310;28;20105;-71
2024/03/23 08:28:01;;;;;;;36.47;33.88;;;;;;;12.81;100.00;101116.00;5088218;28;20097;-71
2024/03/23 08:30:30;;;;;;;37.63;35.03;;;;;;;13.41;100.00;101110.41;5081102;28;20083;-70
2024/03/23 08:32:56;;;;;;;39.50;36.80;;;;;;;15.21;100.00;101106.78;5074188;28;20048;-71
2024/03/23 08:35:23;;;;;;;37.90;35.33;;;;;;;15.66;81.19;101103.66;5083653;28;20051;-72
2024/03/23 08:37:49;;;;;;;37.08;34.38;;;;;;;15.42;100.00;101106.28;5082401;28;20109;-71
2024/03/23 08:40:16;;;;;;;39.22;36.42;;;;;;;15.33;100.00;101105.78;5083720;28;20052;-72
2024/03/23 08:42:47;;;;;;;40.20;37.30;;;;;;;15.24;79.17;101101.78;5087293;28;20056;-72
2024/03/23 08:45:14;;;;;;;43.03;40.13;;;;;;;14.20;100.00;101103.63;5086597;28;20052;-72
2024/03/23 08:47:40;;;;;;;39.38;36.58;;;;;;;13.18;100.00;101098.38;5087798;28;20561;-72
2024/03/23 08:50:08;;;;;;;40.45;37.75;;;;;;;13.57;100.00;101109.88;5087961;28;20040;-72
2024/03/23 08:52:34;;;;;;;40.70;37.95;;;;;;;13.98;100.00;101101.34;5088362;28;20044;-72
2024/03/23 08:55:01;;;;;;;40.30;36.30;;;;;;;13.25;100.00;101095.72;5085979;28;20534;-71
2024/03/23 08:57:27;;;;;;;39.30;36.60;;;;;;;13.32;100.00;101095.69;5083408;28;20044;-71
2024/03/23 08:59:57;;;;;;;39.90;37.20;;;;;;;13.27;100.00;101091.78;5080844;28;20040;-71
2024/03/23 09:02:23;;;;;;;39.88;37.08;;;;;;;14.09;100.00;101091.78;5087559;28;20055;-71
2024/03/23 09:04:50;;;;;;;37.58;34.97;;;;;;;13.46;100.00;101087.38;5087976;28;20062;-71
2024/03/23 09:07:17;;;;;;;37.60;34.55;;;;;;;14.96;100.00;101078.31;5072486;28;20044;-72
2024/03/23 09:09:44;;;;;;;36.35;33.78;;;;;;;14.38;100.00;101084.94;5082144;28;20048;-71
2024/03/23 09:12:10;;;;;;;38.40;35.70;;;;;;;13.67;100.00;101077.38;5085497;28;20114;-71
2024/03/23 09:14:37;;;;;;;39.83;37.03;;;;;;;16.40;73.85;101075.41;5085985;28;20056;-71
2024/03/23 09:17:05;;;;;;;40.05;37.25;;;;;;;16.57;69.69;101063.94;5087894;28;20064;-71
2024/03/23 09:19:32;;;;;;;40.78;38.08;;;;;;;14.68;100.00;101067.38;5087479;28;20484;-72
2024/03/23 09:22:04;;;;;;;39.83;37.13;;;;;;;15.63;83.20;101061.28;5084755;28;20048;-71
2024/03/23 09:24:32;;;;;;;42.55;39.75;;;;;;;15.26;100.00;101059.56;5068170;28;20087;-72
2024/03/23 09:26:58;;;;;;;41.08;38.13;;;;;;;15.46;93.71;101059.28;5082759;28;20087;-72
2024/03/23 09:29:25;;;;;;;40.83;37.92;;;;;;;15.50;93.46;101056.97;5087399;28;20059;-72
2024/03/23 09:31:51;;;;;;;44.67;41.72;;;;;;;15.63;86.69;101053.25;5086416;28;20059;-71
2024/03/23 09:34:19;;;;;;;47.85;44.95;;;;;;;15.39;96.50;101033.66;5083120;28;20048;-71
2024/03/23 09:36:45;;;;;;;51.38;48.28;;;;;;;17.07;73.69;101041.88;5071125;28;20052;-71
2024/03/23 09:39:13;;;;;;;47.58;44.47;;;;;;;17.81;67.54;101042.56;5084436;28;20049;-72
2024/03/23 09:41:39;;;;;;;48.58;45.38;;;;;;;15.68;69.29;101037.34;5086563;28;20062;-73
2024/03/23 09:44:07;;;;;;;51.50;48.20;;;;;;;15.75;84.48;101032.69;5087815;28;20832;-73
2024/03/23 09:46:36;;;;;;;48.50;45.30;;;;;;;16.16;88.92;101028.25;5092013;28;20830;-73
2024/03/23 09:49:04;;;;;;;54.08;50.67;;;;;;;16.19;69.29;101022.41;5088563;28;20050;-72
2024/03/23 09:51:31;;;;;;;51.08;47.78;;;;;;;15.34;88.29;101016.44;5090762;28;20058;-73
2024/03/23 09:53:59;;;;;;;52.10;48.90;;;;;;;15.14;100.00;101015.09;5087538;28;20142;-72
2024/03/23 09:56:25;;;;;;;49.22;46.13;;;;;;;16.13;83.32;101007.28;5088171;28;20052;-71
2024/03/23 09:59:01;;;;;;;50.92;47.40;;;;;;;18.36;56.13;101011.31;5086795;28;20047;-71
2024/03/23 10:01:29;;;;;;;53.63;50.22;;;;;;;19.01;52.60;101015.03;5085033;28;20059;-71
2024/03/23 10:03:57;;;;;;;54.38;50.90;;;;;;;16.14;76.41;101004.34;5091327;28;20702;-72
2024/03/23 10:06:24;;;;;;;57.15;53.45;;;;;;;18.51;57.83;100991.88;5091395;28;20048;-72
2024/03/23 10:08:54;;;;;;;52.42;48.83;;;;;;;18.84;50.77;100984.72;5090089;28;20063;-72
2024/03/23 10:11:21;;;;;;;53.65;50.05;;;;;;;16.52;52.60;100994.13;5077382;28;20113;-71
2024/03/23 10:13:48;;;;;;;46.97;43.72;;;;;;;17.03;50.55;100985.16;5091033;28;20048;-72
2024/03/23 10:16:22;;;;;;;45.25;42.10;;;;;;;16.35;53.81;100986.84;5090449;28;20109;-72
2024/03/23 10:18:49;;;;;;;50.38;46.97;;;;;;;18.44;48.36;100983.19;5091029;28;20150;-72
2024/03/23 10:21:16;;;;;;;57.35;53.75;;;;;;;19.36;43.90;100965.22;5086187;28;20499;-71
2024/03/23 10:23:44;;;;;;;52.47;48.97;;;;;;;19.44;44.18;100968.25;5082396;28;20148;-72
2024/03/23 10:26:21;;;;;;;61.08;54.33;;;;;;;17.67;53.46;100965.22;5070525;28;20511;-72
2024/03/23 10:29:00;;;;;;;54.70;51.10;;;;;;;17.05;63.65;100961.59;5082404;28;20709;-72
2024/03/23 10:31:27;;;;;;;44.42;41.22;;;;;;;17.60;49.30;100960.03;5089845;28;20056;-72
2024/03/23 10:33:54;;;;;;;45.72;42.35;;;;;;;18.47;47.62;100950.41;5086840;28;20063;-72
2024/03/23 10:36:22;;;;;;;45.50;42.30;;;;;;;17.62;45.46;100947.97;5081411;28;20052;-72
2024/03/23 10:38:49;;;;;;;49.95;46.53;;;;;;;17.16;46.52;100941.13;5088273;28;20044;-70
2024/03/23 10:41:17;;;;;;;48.97;45.47;;;;;;;17.30;45.13;100945.09;5089839;28;20048;-73
2024/03/23 10:43:46;;;;;;;47.22;43.92;;;;;;;19.06;41.94;100926.22;5087009;28;20060;-72
2024/03/23 10:46:13;;;;;;;46.30;43.10;;;;;;;20.17;43.71;100929.03;5089341;28;20052;-72
2024/03/23 10:48:39;;;;;;;48.40;45.08;;;;;;;17.69;51.07;100920.94;5090242;28;20048;-72
2024/03/23 10:51:09;;;;;;;47.70;44.35;;;;;;;17.79;51.36;100918.44;5086645;28;20048;-72
2024/03/23 10:53:36;;;;;;;47.22;43.92;;;;;;;16.99;50.47;100924.19;5080913;28;20056;-73
2024/03/23 10:56:05;;;;;;;49.30;46.00;;;;;;;17.18;63.28;100918.31;5087828;28;20503;-73
2024/03/23 10:58:36;;;;;;;45.65;42.45;;;;;;;20.01;42.59;100902.03;5084389;28;20121;-70
2024/03/23 11:01:05;;;;;;;45.92;42.78;;;;;;;18.93;52.82;100903.25;5086012;28;20159;-72
2024/03/23 11:03:36;;;;;;;45.05;41.70;;;;;;;19.83;42.21;100899.81;5077997;28;20900;-72
2024/03/23 11:06:04;;;;;;;47.80;44.70;;;;;;;19.07;45.06;100890.19;5088543;28;20040;-71
2024/03/23 11:08:35;;;;;;;52.30;48.80;;;;;;;19.25;47.83;100890.84;5088034;28;20055;-72